sensor_id;sensor_type;location;lat;lon;timestamp;temperature;humidity
25933;DHT22;13731;51.166;4.474;2024-02-23T00:01:43;5.40;99.90
25933;DHT22;13731;51.166;4.474;2024-02-23T00:04:09;5.50;99.90
25933;DHT22;13731;51.166;4.474;2024-02-23T00:06:35;5.50;99.90
25933;DHT22;13731;51.166;4.474;2024-02-23T00:09:01;5.60;99.90
25933;DHT22;13731;51.166;4.474;2024-02-23T00:11:27;5.50;99.90
25933;DHT22;13731;51.166;4.474;2024-02-23T00:13:54;5.40;99.90
25933;DHT22;13731;51.166;4.474;2024-02-23T00:16:19;5.30;99.90
25933;DHT22;13731;51.166;4.474;2024-02-23T00:18:45;5.30;99.90
25933;DHT22;13731;51.166;4.474;2024-02-23T00:21:11;5.30;99.90
25933;DHT22;13731;51.166;4.474;2024-02-23T00:23:36;5.30;99.90
25933;DHT22;13731;51.166;4.474;2024-02-23T00:26:02;5.20;99.90
25933;DHT22;13731;51.166;4.474;2024-02-23T00:28:28;5.20;99.90
25933;DHT22;13731;51.166;4.474;2024-02-23T00:30:53;5.20;99.90
25933;DHT22;13731;51.166;4.474;2024-02-23T00:33:19;5.30;99.90
25933;DHT22;13731;51.166;4.474;2024-02-23T00:35:45;5.40;99.90
25933;DHT22;13731;51.166;4.474;2024-02-23T00:38:10;5.40;99.90
25933;DHT22;13731;51.166;4.474;2024-02-23T00:40:36;5.40;99.90
25933;DHT22;13731;51.166;4.474;2024-02-23T00:43:02;5.40;99.90
25933;DHT22;13731;51.166;4.474;2024-02-23T00:45:28;5.40;99.90
25933;DHT22;13731;51.166;4.474;2024-02-23T00:47:54;5.40;99.90
25933;DHT22;13731;51.166;4.474;2024-02-23T00:50:20;5.50;99.90
25933;DHT22;13731;51.166;4.474;2024-02-23T00:52:46;5.50;99.90
25933;DHT22;13731;51.166;4.474;2024-02-23T00:55:11;5.50;99.90
25933;DHT22;13731;51.166;4.474;2024-02-23T00:57:37;5.50;99.90
25933;DHT22;13731;51.166;4.474;2024-02-23T01:00:03;5.50;99.90
25933;DHT22;13731;51.166;4.474;2024-02-23T01:02:34;5.60;99.90
25933;DHT22;13731;51.166;4.474;2024-02-23T01:05:00;5.70;99.90
25933;DHT22;13731;51.166;4.474;2024-02-23T01:07:26;5.70;99.90
25933;DHT22;13731;51.166;4.474;2024-02-23T01:09:51;5.80;99.90
25933;DHT22;13731;51.166;4.474;2024-02-23T01:12:17;5.80;99.90
25933;DHT22;13731;51.166;4.474;2024-02-23T01:14:43;5.90;99.90
25933;DHT22;13731;51.166;4.474;2024-02-23T01:17:08;5.80;99.90
25933;DHT22;13731;51.166;4.474;2024-02-23T01:19:34;5.80;99.90
25933;DHT22;13731;51.166;4.474;2024-02-23T01:22:00;5.80;99.90
25933;DHT22;13731;51.166;4.474;2024-02-23T01:24:26;5.70;99.90
25933;DHT22;13731;51.166;4.474;2024-02-23T01:26:53;5.60;99.90
25933;DHT22;13731;51.166;4.474;2024-02-23T01:29:20;5.60;99.90
25933;DHT22;13731;51.166;4.474;2024-02-23T01:31:46;5.70;99.90
25933;DHT22;13731;51.166;4.474;2024-02-23T01:34:11;5.60;99.90
25933;DHT22;13731;51.166;4.474;2024-02-23T01:36:37;5.60;99.90
25933;DHT22;13731;51.166;4.474;2024-02-23T01:39:04;5.40;99.90
25933;DHT22;13731;51.166;4.474;2024-02-23T01:41:30;5.40;99.90
25933;DHT22;13731;51.166;4.474;2024-02-23T01:43:56;5.40;99.90
25933;DHT22;13731;51.166;4.474;2024-02-23T01:46:21;5.30;99.90
25933;DHT22;13731;51.166;4.474;2024-02-23T01:48:47;5.30;99.90
25933;DHT22;13731;51.166;4.474;2024-02-23T01:51:13;5.30;99.90
25933;DHT22;13731;51.166;4.474;2024-02-23T01:53:39;5.30;99.90
25933;DHT22;13731;51.166;4.474;2024-02-23T01:56:04;5.20;99.90
25933;DHT22;13731;51.166;4.474;2024-02-23T01:58:30;5.20;99.90
25933;DHT22;13731;51.166;4.474;2024-02-23T02:00:56;5.10;99.90
25933;DHT22;13731;51.166;4.474;2024-02-23T02:03:22;5.00;99.90
25933;DHT22;13731;51.166;4.474;2024-02-23T02:05:48;5.00;99.90
25933;DHT22;13731;51.166;4.474;2024-02-23T02:08:15;5.00;99.90
25933;DHT22;13731;51.166;4.474;2024-02-23T02:10:44;5.00;99.90
25933;DHT22;13731;51.166;4.474;2024-02-23T02:13:11;5.00;99.90
25933;DHT22;13731;51.166;4.474;2024-02-23T02:15:36;5.00;99.90
25933;DHT22;13731;51.166;4.474;2024-02-23T02:18:02;5.00;99.90
25933;DHT22;13731;51.166;4.474;2024-02-23T02:20:28;5.10;99.90
25933;DHT22;13731;51.166;4.474;2024-02-23T02:22:57;5.20;99.90
25933;DHT22;13731;51.166;4.474;2024-02-23T02:25:23;5.20;99.90
25933;DHT22;13731;51.166;4.474;2024-02-23T02:27:48;5.30;99.90
25933;DHT22;13731;51.166;4.474;2024-02-23T02:30:14;5.30;99.90
25933;DHT22;13731;51.166;4.474;2024-02-23T02:32:40;5.40;99.90
25933;DHT22;13731;51.166;4.474;2024-02-23T02:35:06;5.40;99.90
25933;DHT22;13731;51.166;4.474;2024-02-23T02:37:31;5.30;99.90
25933;DHT22;13731;51.166;4.474;2024-02-23T02:39:57;5.30;99.90
25933;DHT22;13731;51.166;4.474;2024-02-23T02:42:23;5.40;99.90
25933;DHT22;13731;51.166;4.474;2024-02-23T02:44:48;5.50;99.90
25933;DHT22;13731;51.166;4.474;2024-02-23T02:47:14;5.50;99.90
25933;DHT22;13731;51.166;4.474;2024-02-23T02:49:40;5.50;99.90
25933;DHT22;13731;51.166;4.474;2024-02-23T02:52:06;5.50;99.90
25933;DHT22;13731;51.166;4.474;2024-02-23T02:54:33;5.50;99.90
25933;DHT22;13731;51.166;4.474;2024-02-23T02:56:59;5.50;99.90
25933;DHT22;13731;51.166;4.474;2024-02-23T02:59:25;5.50;99.90
25933;DHT22;13731;51.166;4.474;2024-02-23T03:01:51;5.50;99.90
25933;DHT22;13731;51.166;4.474;2024-02-23T03:04:16;5.50;99.90
25933;DHT22;13731;51.166;4.474;2024-02-23T03:06:42;5.60;99.90
25933;DHT22;13731;51.166;4.474;2024-02-23T03:09:07;5.60;99.90
25933;DHT22;13731;51.166;4.474;2024-02-23T03:11:33;5.60;99.90
25933;DHT22;13731;51.166;4.474;2024-02-23T03:13:59;5.50;99.90
25933;DHT22;13731;51.166;4.474;2024-02-23T03:16:24;5.50;99.90
25933;DHT22;13731;51.166;4.474;2024-02-23T03:18:55;5.50;99.90
25933;DHT22;13731;51.166;4.474;2024-02-23T03:21:21;5.40;99.90
25933;DHT22;13731;51.166;4.474;2024-02-23T03:23:47;5.40;99.90
25933;DHT22;13731;51.166;4.474;2024-02-23T03:26:12;5.40;99.90
25933;DHT22;13731;51.166;4.474;2024-02-23T03:28:39;5.40;99.90
25933;DHT22;13731;51.166;4.474;2024-02-23T03:31:04;5.30;99.90
25933;DHT22;13731;51.166;4.474;2024-02-23T03:33:30;5.40;99.90
25933;DHT22;13731;51.166;4.474;2024-02-23T03:35:57;5.40;99.90
25933;DHT22;13731;51.166;4.474;2024-02-23T03:38:23;5.40;99.90
25933;DHT22;13731;51.166;4.474;2024-02-23T03:40:49;5.30;99.90
25933;DHT22;13731;51.166;4.474;2024-02-23T03:43:14;5.30;99.90
25933;DHT22;13731;51.166;4.474;2024-02-23T03:45:40;5.30;99.90
25933;DHT22;13731;51.166;4.474;2024-02-23T03:48:06;5.40;99.90
25933;DHT22;13731;51.166;4.474;2024-02-23T03:50:31;5.40;99.90
25933;DHT22;13731;51.166;4.474;2024-02-23T03:52:57;5.50;99.90
25933;DHT22;13731;51.166;4.474;2024-02-23T03:55:23;5.50;99.90
25933;DHT22;13731;51.166;4.474;2024-02-23T03:57:50;5.60;99.90
25933;DHT22;13731;51.166;4.474;2024-02-23T04:00:16;5.60;99.90
25933;DHT22;13731;51.166;4.474;2024-02-23T04:02:42;5.70;99.90
25933;DHT22;13731;51.166;4.474;2024-02-23T04:05:09;5.60;99.90
25933;DHT22;13731;51.166;4.474;2024-02-23T04:07:34;5.60;99.90
25933;DHT22;13731;51.166;4.474;2024-02-23T04:10:00;5.70;99.90
25933;DHT22;13731;51.166;4.474;2024-02-23T04:12:26;5.80;99.90
25933;DHT22;13731;51.166;4.474;2024-02-23T04:14:51;5.80;99.90
25933;DHT22;13731;51.166;4.474;2024-02-23T04:17:17;5.80;99.90
25933;DHT22;13731;51.166;4.474;2024-02-23T04:19:44;5.80;99.90
25933;DHT22;13731;51.166;4.474;2024-02-23T04:22:10;5.80;99.90
25933;DHT22;13731;51.166;4.474;2024-02-23T04:24:35;5.90;99.90
25933;DHT22;13731;51.166;4.474;2024-02-23T04:27:01;5.90;99.90
25933;DHT22;13731;51.166;4.474;2024-02-23T04:29:27;5.90;99.90
25933;DHT22;13731;51.166;4.474;2024-02-23T04:31:53;5.70;99.90
25933;DHT22;13731;51.166;4.474;2024-02-23T04:34:18;5.80;99.90
25933;DHT22;13731;51.166;4.474;2024-02-23T04:36:44;5.80;99.90
25933;DHT22;13731;51.166;4.474;2024-02-23T04:39:10;5.80;99.90
25933;DHT22;13731;51.166;4.474;2024-02-23T04:41:35;5.70;99.90
25933;DHT22;13731;51.166;4.474;2024-02-23T04:44:01;5.70;99.90
25933;DHT22;13731;51.166;4.474;2024-02-23T04:46:27;5.70;99.90
25933;DHT22;13731;51.166;4.474;2024-02-23T04:48:53;5.80;99.90
25933;DHT22;13731;51.166;4.474;2024-02-23T04:51:19;5.80;99.90
25933;DHT22;13731;51.166;4.474;2024-02-23T04:53:44;5.90;99.90
25933;DHT22;13731;51.166;4.474;2024-02-23T04:56:11;5.90;99.90
25933;DHT22;13731;51.166;4.474;2024-02-23T04:58:37;5.90;99.90
25933;DHT22;13731;51.166;4.474;2024-02-23T05:01:03;5.90;99.90
25933;DHT22;13731;51.166;4.474;2024-02-23T05:03:28;5.90;99.90
25933;DHT22;13731;51.166;4.474;2024-02-23T05:05:54;5.80;99.90
25933;DHT22;13731;51.166;4.474;2024-02-23T05:08:20;5.80;99.90
25933;DHT22;13731;51.166;4.474;2024-02-23T05:10:46;5.80;99.90
25933;DHT22;13731;51.166;4.474;2024-02-23T05:13:12;5.80;99.90
25933;DHT22;13731;51.166;4.474;2024-02-23T05:15:38;5.70;99.90
25933;DHT22;13731;51.166;4.474;2024-02-23T05:18:04;5.70;99.90
25933;DHT22;13731;51.166;4.474;2024-02-23T05:20:29;5.70;99.90
25933;DHT22;13731;51.166;4.474;2024-02-23T05:22:55;5.70;99.90
25933;DHT22;13731;51.166;4.474;2024-02-23T05:25:21;5.80;99.90
25933;DHT22;13731;51.166;4.474;2024-02-23T05:27:46;5.70;99.90
25933;DHT22;13731;51.166;4.474;2024-02-23T05:30:12;5.70;99.90
25933;DHT22;13731;51.166;4.474;2024-02-23T05:32:38;5.80;99.90
25933;DHT22;13731;51.166;4.474;2024-02-23T05:35:05;5.80;99.90
25933;DHT22;13731;51.166;4.474;2024-02-23T05:37:30;5.90;99.90
25933;DHT22;13731;51.166;4.474;2024-02-23T05:39:56;6.00;99.90
25933;DHT22;13731;51.166;4.474;2024-02-23T05:42:25;5.90;99.90
25933;DHT22;13731;51.166;4.474;2024-02-23T05:44:51;5.90;99.90
25933;DHT22;13731;51.166;4.474;2024-02-23T05:47:16;6.00;99.90
25933;DHT22;13731;51.166;4.474;2024-02-23T05:49:43;6.00;99.90
25933;DHT22;13731;51.166;4.474;2024-02-23T05:52:08;6.10;99.90
25933;DHT22;13731;51.166;4.474;2024-02-23T05:54:35;6.10;99.90
25933;DHT22;13731;51.166;4.474;2024-02-23T05:57:00;6.00;99.90
25933;DHT22;13731;51.166;4.474;2024-02-23T05:59:26;6.10;99.90
25933;DHT22;13731;51.166;4.474;2024-02-23T06:01:52;6.10;99.90
25933;DHT22;13731;51.166;4.474;2024-02-23T06:04:22;6.00;99.90
25933;DHT22;13731;51.166;4.474;2024-02-23T06:06:48;6.10;99.90
25933;DHT22;13731;51.166;4.474;2024-02-23T06:09:14;6.00;99.90
25933;DHT22;13731;51.166;4.474;2024-02-23T06:11:39;6.00;99.90
25933;DHT22;13731;51.166;4.474;2024-02-23T06:14:05;6.00;99.90
25933;DHT22;13731;51.166;4.474;2024-02-23T06:16:31;6.10;99.90
25933;DHT22;13731;51.166;4.474;2024-02-23T06:18:56;6.10;99.90
25933;DHT22;13731;51.166;4.474;2024-02-23T06:21:23;6.10;99.90
25933;DHT22;13731;51.166;4.474;2024-02-23T06:23:49;6.00;99.90
25933;DHT22;13731;51.166;4.474;2024-02-23T06:26:15;6.00;99.90
25933;DHT22;13731;51.166;4.474;2024-02-23T06:28:41;6.00;99.90
25933;DHT22;13731;51.166;4.474;2024-02-23T06:31:07;6.00;99.90
25933;DHT22;13731;51.166;4.474;2024-02-23T06:33:33;6.00;99.90
25933;DHT22;13731;51.166;4.474;2024-02-23T06:35:59;5.90;99.90
25933;DHT22;13731;51.166;4.474;2024-02-23T06:38:24;5.90;99.90
25933;DHT22;13731;51.166;4.474;2024-02-23T06:40:50;6.00;99.90
25933;DHT22;13731;51.166;4.474;2024-02-23T06:43:16;6.00;99.90
25933;DHT22;13731;51.166;4.474;2024-02-23T06:45:42;6.00;99.90
25933;DHT22;13731;51.166;4.474;2024-02-23T06:48:08;6.00;99.90
25933;DHT22;13731;51.166;4.474;2024-02-23T06:50:34;6.00;99.90
25933;DHT22;13731;51.166;4.474;2024-02-23T06:53:00;6.10;99.90
25933;DHT22;13731;51.166;4.474;2024-02-23T06:55:25;6.10;99.90
25933;DHT22;13731;51.166;4.474;2024-02-23T06:57:51;6.10;99.90
25933;DHT22;13731;51.166;4.474;2024-02-23T07:00:17;6.10;99.90
25933;DHT22;13731;51.166;4.474;2024-02-23T07:02:43;6.10;99.90
25933;DHT22;13731;51.166;4.474;2024-02-23T07:05:08;6.10;99.90
25933;DHT22;13731;51.166;4.474;2024-02-23T07:07:34;6.20;99.90
25933;DHT22;13731;51.166;4.474;2024-02-23T07:10:00;6.20;99.90
25933;DHT22;13731;51.166;4.474;2024-02-23T07:12:26;6.20;99.90
25933;DHT22;13731;51.166;4.474;2024-02-23T07:14:55;6.20;99.90
25933;DHT22;13731;51.166;4.474;2024-02-23T07:17:21;6.20;99.90
25933;DHT22;13731;51.166;4.474;2024-02-23T07:19:47;6.20;99.90
25933;DHT22;13731;51.166;4.474;2024-02-23T07:22:13;6.30;99.90
25933;DHT22;13731;51.166;4.474;2024-02-23T07:24:41;6.30;99.90
25933;DHT22;13731;51.166;4.474;2024-02-23T07:27:07;6.20;99.90
25933;DHT22;13731;51.166;4.474;2024-02-23T07:29:33;6.20;99.90
25933;DHT22;13731;51.166;4.474;2024-02-23T07:31:59;6.20;99.90
25933;DHT22;13731;51.166;4.474;2024-02-23T07:34:24;6.30;99.90
25933;DHT22;13731;51.166;4.474;2024-02-23T07:36:53;6.40;99.90
25933;DHT22;13731;51.166;4.474;2024-02-23T07:39:20;6.40;99.90
25933;DHT22;13731;51.166;4.474;2024-02-23T07:41:45;6.40;99.90
25933;DHT22;13731;51.166;4.474;2024-02-23T07:44:11;6.50;99.90
25933;DHT22;13731;51.166;4.474;2024-02-23T07:46:37;6.60;99.90
25933;DHT22;13731;51.166;4.474;2024-02-23T07:49:04;6.60;99.90
25933;DHT22;13731;51.166;4.474;2024-02-23T07:51:29;6.70;99.90
25933;DHT22;13731;51.166;4.474;2024-02-23T07:53:55;6.80;99.90
25933;DHT22;13731;51.166;4.474;2024-02-23T07:56:20;6.80;99.90
25933;DHT22;13731;51.166;4.474;2024-02-23T07:58:46;6.90;99.90
25933;DHT22;13731;51.166;4.474;2024-02-23T08:01:13;6.80;99.90
25933;DHT22;13731;51.166;4.474;2024-02-23T08:03:40;6.90;99.90
25933;DHT22;13731;51.166;4.474;2024-02-23T08:06:06;6.90;99.90
25933;DHT22;13731;51.166;4.474;2024-02-23T08:08:31;6.90;99.90
25933;DHT22;13731;51.166;4.474;2024-02-23T08:11:03;6.90;99.90
25933;DHT22;13731;51.166;4.474;2024-02-23T08:13:29;6.90;99.90
25933;DHT22;13731;51.166;4.474;2024-02-23T08:15:55;6.80;99.90
25933;DHT22;13731;51.166;4.474;2024-02-23T08:18:20;6.60;99.90
25933;DHT22;13731;51.166;4.474;2024-02-23T08:20:47;6.30;99.90
25933;DHT22;13731;51.166;4.474;2024-02-23T08:23:13;6.10;99.90
25933;DHT22;13731;51.166;4.474;2024-02-23T08:25:39;6.00;99.90
25933;DHT22;13731;51.166;4.474;2024-02-23T08:28:05;6.00;99.90
25933;DHT22;13731;51.166;4.474;2024-02-23T08:30:31;5.90;99.90
25933;DHT22;13731;51.166;4.474;2024-02-23T08:32:57;5.90;99.90
25933;DHT22;13731;51.166;4.474;2024-02-23T08:35:22;5.90;99.90
25933;DHT22;13731;51.166;4.474;2024-02-23T08:37:49;5.80;99.90
25933;DHT22;13731;51.166;4.474;2024-02-23T08:40:14;5.80;99.90
25933;DHT22;13731;51.166;4.474;2024-02-23T08:42:40;5.90;99.90
25933;DHT22;13731;51.166;4.474;2024-02-23T08:45:06;5.90;99.90
25933;DHT22;13731;51.166;4.474;2024-02-23T08:47:31;5.90;99.90
25933;DHT22;13731;51.166;4.474;2024-02-23T08:49:59;5.80;99.90
25933;DHT22;13731;51.166;4.474;2024-02-23T08:52:25;5.80;99.90
25933;DHT22;13731;51.166;4.474;2024-02-23T08:54:51;5.90;99.90
25933;DHT22;13731;51.166;4.474;2024-02-23T08:57:17;5.80;99.90
25933;DHT22;13731;51.166;4.474;2024-02-23T08:59:45;5.70;99.90
25933;DHT22;13731;51.166;4.474;2024-02-23T09:02:11;5.80;99.90
25933;DHT22;13731;51.166;4.474;2024-02-23T09:04:36;5.80;99.90
25933;DHT22;13731;51.166;4.474;2024-02-23T09:07:02;5.80;99.90
25933;DHT22;13731;51.166;4.474;2024-02-23T09:09:28;5.90;99.90
25933;DHT22;13731;51.166;4.474;2024-02-23T09:11:53;6.00;99.90
25933;DHT22;13731;51.166;4.474;2024-02-23T09:14:19;6.00;99.90
25933;DHT22;13731;51.166;4.474;2024-02-23T09:16:45;6.00;99.90
25933;DHT22;13731;51.166;4.474;2024-02-23T09:19:12;6.10;99.90
25933;DHT22;13731;51.166;4.474;2024-02-23T09:21:38;6.10;99.90
25933;DHT22;13731;51.166;4.474;2024-02-23T09:24:04;6.10;99.90
25933;DHT22;13731;51.166;4.474;2024-02-23T09:26:30;6.10;99.90
25933;DHT22;13731;51.166;4.474;2024-02-23T09:28:56;6.20;99.90
25933;DHT22;13731;51.166;4.474;2024-02-23T09:31:22;6.30;99.90
25933;DHT22;13731;51.166;4.474;2024-02-23T09:33:48;6.40;99.90
25933;DHT22;13731;51.166;4.474;2024-02-23T09:36:16;6.40;99.90
25933;DHT22;13731;51.166;4.474;2024-02-23T09:38:42;6.50;99.90
25933;DHT22;13731;51.166;4.474;2024-02-23T09:41:11;6.50;99.90
25933;DHT22;13731;51.166;4.474;2024-02-23T09:43:41;6.80;99.90
25933;DHT22;13731;51.166;4.474;2024-02-23T09:46:07;7.00;99.90
25933;DHT22;13731;51.166;4.474;2024-02-23T09:48:33;7.00;99.90
25933;DHT22;13731;51.166;4.474;2024-02-23T09:51:00;7.10;99.90
25933;DHT22;13731;51.166;4.474;2024-02-23T09:53:26;7.20;99.90
25933;DHT22;13731;51.166;4.474;2024-02-23T09:55:54;7.20;99.90
25933;DHT22;13731;51.166;4.474;2024-02-23T09:58:21;7.20;99.90
25933;DHT22;13731;51.166;4.474;2024-02-23T10:00:47;7.20;99.90
25933;DHT22;13731;51.166;4.474;2024-02-23T10:03:13;7.10;99.90
25933;DHT22;13731;51.166;4.474;2024-02-23T10:05:39;7.20;99.90
25933;DHT22;13731;51.166;4.474;2024-02-23T10:08:04;7.30;99.90
25933;DHT22;13731;51.166;4.474;2024-02-23T10:10:32;7.40;99.90
25933;DHT22;13731;51.166;4.474;2024-02-23T10:12:58;7.40;99.90
25933;DHT22;13731;51.166;4.474;2024-02-23T10:15:24;7.40;99.90
25933;DHT22;13731;51.166;4.474;2024-02-23T10:17:49;7.50;99.90
25933;DHT22;13731;51.166;4.474;2024-02-23T10:20:15;7.40;99.90
25933;DHT22;13731;51.166;4.474;2024-02-23T10:22:41;7.50;99.90
25933;DHT22;13731;51.166;4.474;2024-02-23T10:25:07;7.60;99.90
25933;DHT22;13731;51.166;4.474;2024-02-23T10:27:32;7.70;99.90
25933;DHT22;13731;51.166;4.474;2024-02-23T10:29:58;7.70;99.90
25933;DHT22;13731;51.166;4.474;2024-02-23T10:32:25;7.70;99.90
25933;DHT22;13731;51.166;4.474;2024-02-23T10:34:50;7.80;99.90
25933;DHT22;13731;51.166;4.474;2024-02-23T10:37:17;7.80;99.90
25933;DHT22;13731;51.166;4.474;2024-02-23T10:39:43;7.90;99.90
25933;DHT22;13731;51.166;4.474;2024-02-23T10:42:11;8.10;99.90
25933;DHT22;13731;51.166;4.474;2024-02-23T10:44:38;8.00;99.90
25933;DHT22;13731;51.166;4.474;2024-02-23T10:47:04;8.10;99.90
25933;DHT22;13731;51.166;4.474;2024-02-23T10:49:30;8.30;99.90
25933;DHT22;13731;51.166;4.474;2024-02-23T10:51:56;8.30;99.90
25933;DHT22;13731;51.166;4.474;2024-02-23T10:54:22;8.00;99.90
25933;DHT22;13731;51.166;4.474;2024-02-23T10:56:52;8.10;99.90
25933;DHT22;13731;51.166;4.474;2024-02-23T10:59:18;8.30;99.90
25933;DHT22;13731;51.166;4.474;2024-02-23T11:01:46;8.40;99.90
25933;DHT22;13731;51.166;4.474;2024-02-23T11:04:13;8.40;99.90
25933;DHT22;13731;51.166;4.474;2024-02-23T11:06:39;8.50;99.90
25933;DHT22;13731;51.166;4.474;2024-02-23T11:09:12;8.50;99.90
25933;DHT22;13731;51.166;4.474;2024-02-23T11:11:38;8.40;99.90
25933;DHT22;13731;51.166;4.474;2024-02-23T11:14:07;8.50;99.90
25933;DHT22;13731;51.166;4.474;2024-02-23T11:16:37;8.90;99.90
25933;DHT22;13731;51.166;4.474;2024-02-23T11:19:04;9.00;99.90
25933;DHT22;13731;51.166;4.474;2024-02-23T11:21:36;9.20;99.90
25933;DHT22;13731;51.166;4.474;2024-02-23T11:24:03;9.00;99.90
25933;DHT22;13731;51.166;4.474;2024-02-23T11:26:29;8.90;99.90
25933;DHT22;13731;51.166;4.474;2024-02-23T11:28:54;9.10;99.90
25933;DHT22;13731;51.166;4.474;2024-02-23T11:31:21;9.50;99.90
25933;DHT22;13731;51.166;4.474;2024-02-23T11:33:47;10.00;99.90
25933;DHT22;13731;51.166;4.474;2024-02-23T11:36:21;10.30;99.90
25933;DHT22;13731;51.166;4.474;2024-02-23T11:38:47;10.80;99.90
25933;DHT22;13731;51.166;4.474;2024-02-23T11:41:12;10.60;99.90
25933;DHT22;13731;51.166;4.474;2024-02-23T11:43:39;10.50;99.90
25933;DHT22;13731;51.166;4.474;2024-02-23T11:46:05;10.50;99.90
25933;DHT22;13731;51.166;4.474;2024-02-23T11:48:30;10.50;99.90
25933;DHT22;13731;51.166;4.474;2024-02-23T11:50:56;10.10;99.90
25933;DHT22;13731;51.166;4.474;2024-02-23T11:53:22;9.60;99.90
25933;DHT22;13731;51.166;4.474;2024-02-23T11:55:48;9.40;99.90
25933;DHT22;13731;51.166;4.474;2024-02-23T11:58:15;9.40;99.90
25933;DHT22;13731;51.166;4.474;2024-02-23T12:00:40;9.40;99.90
25933;DHT22;13731;51.166;4.474;2024-02-23T12:03:06;9.50;99.90
25933;DHT22;13731;51.166;4.474;2024-02-23T12:05:32;9.30;99.90
25933;DHT22;13731;51.166;4.474;2024-02-23T12:07:58;8.90;99.90
25933;DHT22;13731;51.166;4.474;2024-02-23T12:10:24;9.00;99.90
25933;DHT22;13731;51.166;4.474;2024-02-23T12:12:53;9.20;99.90
25933;DHT22;13731;51.166;4.474;2024-02-23T12:15:18;9.60;99.90
25933;DHT22;13731;51.166;4.474;2024-02-23T12:17:48;9.60;99.90
25933;DHT22;13731;51.166;4.474;2024-02-23T12:20:14;9.50;99.90
25933;DHT22;13731;51.166;4.474;2024-02-23T12:22:43;9.60;99.90
25933;DHT22;13731;51.166;4.474;2024-02-23T12:25:08;9.90;99.90
25933;DHT22;13731;51.166;4.474;2024-02-23T12:27:34;9.90;99.90
25933;DHT22;13731;51.166;4.474;2024-02-23T12:30:00;9.80;99.90
25933;DHT22;13731;51.166;4.474;2024-02-23T12:32:25;9.50;99.90
25933;DHT22;13731;51.166;4.474;2024-02-23T12:34:54;9.30;99.90
25933;DHT22;13731;51.166;4.474;2024-02-23T12:37:20;9.40;99.90
25933;DHT22;13731;51.166;4.474;2024-02-23T12:39:47;9.80;99.90
25933;DHT22;13731;51.166;4.474;2024-02-23T12:42:13;9.80;99.90
25933;DHT22;13731;51.166;4.474;2024-02-23T12:44:39;9.60;99.90
25933;DHT22;13731;51.166;4.474;2024-02-23T12:47:05;9.50;99.90
25933;DHT22;13731;51.166;4.474;2024-02-23T12:49:30;9.30;99.90
25933;DHT22;13731;51.166;4.474;2024-02-23T12:51:56;9.40;99.90
25933;DHT22;13731;51.166;4.474;2024-02-23T12:54:22;9.40;99.90
25933;DHT22;13731;51.166;4.474;2024-02-23T12:56:48;9.30;99.90
25933;DHT22;13731;51.166;4.474;2024-02-23T12:59:15;9.10;99.90
25933;DHT22;13731;51.166;4.474;2024-02-23T13:01:40;9.10;99.90
25933;DHT22;13731;51.166;4.474;2024-02-23T13:04:06;9.30;99.90
25933;DHT22;13731;51.166;4.474;2024-02-23T13:06:37;9.50;99.90
25933;DHT22;13731;51.166;4.474;2024-02-23T13:09:02;9.30;99.90
25933;DHT22;13731;51.166;4.474;2024-02-23T13:11:29;9.40;99.90
25933;DHT22;13731;51.166;4.474;2024-02-23T13:13:54;9.70;99.90
25933;DHT22;13731;51.166;4.474;2024-02-23T13:16:20;9.90;99.90
25933;DHT22;13731;51.166;4.474;2024-02-23T13:18:46;10.00;99.90
25933;DHT22;13731;51.166;4.474;2024-02-23T13:21:12;10.10;99.90
25933;DHT22;13731;51.166;4.474;2024-02-23T13:23:38;10.30;99.90
25933;DHT22;13731;51.166;4.474;2024-02-23T13:26:05;10.00;99.90
25933;DHT22;13731;51.166;4.474;2024-02-23T13:28:30;9.70;99.90
25933;DHT22;13731;51.166;4.474;2024-02-23T13:30:56;9.60;99.90
25933;DHT22;13731;51.166;4.474;2024-02-23T13:33:22;9.50;99.90
25933;DHT22;13731;51.166;4.474;2024-02-23T13:35:49;9.40;99.90
25933;DHT22;13731;51.166;4.474;2024-02-23T13:38:15;9.30;99.90
25933;DHT22;13731;51.166;4.474;2024-02-23T13:40:40;9.10;99.90
25933;DHT22;13731;51.166;4.474;2024-02-23T13:43:06;9.00;99.90
25933;DHT22;13731;51.166;4.474;2024-02-23T13:45:32;8.90;99.90
25933;DHT22;13731;51.166;4.474;2024-02-23T13:47:59;8.90;99.90
25933;DHT22;13731;51.166;4.474;2024-02-23T13:50:25;9.00;99.90
25933;DHT22;13731;51.166;4.474;2024-02-23T13:52:51;9.10;99.90
25933;DHT22;13731;51.166;4.474;2024-02-23T13:55:17;9.20;99.90
25933;DHT22;13731;51.166;4.474;2024-02-23T13:57:43;9.40;99.90
25933;DHT22;13731;51.166;4.474;2024-02-23T14:00:09;9.40;99.90
25933;DHT22;13731;51.166;4.474;2024-02-23T14:02:38;9.40;99.90
25933;DHT22;13731;51.166;4.474;2024-02-23T14:05:06;9.40;99.90
25933;DHT22;13731;51.166;4.474;2024-02-23T14:07:32;9.40;99.90
25933;DHT22;13731;51.166;4.474;2024-02-23T14:09:58;9.30;99.90
25933;DHT22;13731;51.166;4.474;2024-02-23T14:12:24;9.30;99.90
25933;DHT22;13731;51.166;4.474;2024-02-23T14:14:50;9.30;99.90
25933;DHT22;13731;51.166;4.474;2024-02-23T14:17:15;9.50;99.90
25933;DHT22;13731;51.166;4.474;2024-02-23T14:19:41;9.60;99.90
25933;DHT22;13731;51.166;4.474;2024-02-23T14:22:06;9.70;99.90
25933;DHT22;13731;51.166;4.474;2024-02-23T14:24:32;10.00;99.90
25933;DHT22;13731;51.166;4.474;2024-02-23T14:26:58;10.00;99.90
25933;DHT22;13731;51.166;4.474;2024-02-23T14:29:23;9.90;99.90
25933;DHT22;13731;51.166;4.474;2024-02-23T14:31:49;9.70;99.90
25933;DHT22;13731;51.166;4.474;2024-02-23T14:34:15;9.30;99.90
25933;DHT22;13731;51.166;4.474;2024-02-23T14:36:40;9.10;99.90
25933;DHT22;13731;51.166;4.474;2024-02-23T14:39:06;9.10;99.90
25933;DHT22;13731;51.166;4.474;2024-02-23T14:41:32;9.20;99.90
25933;DHT22;13731;51.166;4.474;2024-02-23T14:43:57;9.20;99.90
25933;DHT22;13731;51.166;4.474;2024-02-23T14:46:23;9.30;99.90
25933;DHT22;13731;51.166;4.474;2024-02-23T14:48:49;9.40;99.90
25933;DHT22;13731;51.166;4.474;2024-02-23T14:51:15;9.40;99.90
25933;DHT22;13731;51.166;4.474;2024-02-23T14:53:41;9.30;99.90
25933;DHT22;13731;51.166;4.474;2024-02-23T14:56:06;9.30;99.90
25933;DHT22;13731;51.166;4.474;2024-02-23T14:58:32;9.30;99.90
25933;DHT22;13731;51.166;4.474;2024-02-23T15:00:57;9.30;99.90
25933;DHT22;13731;51.166;4.474;2024-02-23T15:03:24;9.30;99.90
25933;DHT22;13731;51.166;4.474;2024-02-23T15:05:50;9.30;99.90
25933;DHT22;13731;51.166;4.474;2024-02-23T15:08:16;9.40;99.90
25933;DHT22;13731;51.166;4.474;2024-02-23T15:10:41;9.50;99.90
25933;DHT22;13731;51.166;4.474;2024-02-23T15:13:07;9.50;99.90
25933;DHT22;13731;51.166;4.474;2024-02-23T15:15:33;9.60;99.90
25933;DHT22;13731;51.166;4.474;2024-02-23T15:18:01;9.90;99.90
25933;DHT22;13731;51.166;4.474;2024-02-23T15:20:27;10.00;99.90
25933;DHT22;13731;51.166;4.474;2024-02-23T15:22:53;10.00;99.90
25933;DHT22;13731;51.166;4.474;2024-02-23T15:25:18;9.90;99.90
25933;DHT22;13731;51.166;4.474;2024-02-23T15:27:44;9.90;99.90
25933;DHT22;13731;51.166;4.474;2024-02-23T15:30:10;9.80;99.90
25933;DHT22;13731;51.166;4.474;2024-02-23T15:32:36;9.80;99.90
25933;DHT22;13731;51.166;4.474;2024-02-23T15:35:02;9.60;99.90
25933;DHT22;13731;51.166;4.474;2024-02-23T15:37:31;9.10;99.90